Time;durP1;ratioP1;P1;durP2;ratioP2;P2;SDS_P1;SDS_P2;PMS_P1;PMS_P2;Temp;Humidity;BMP_temperature;BMP_pressure;BME280_temperature;BME280_humidity;BME280_pressure;Samples;Min_cycle;Max_cycle;Signal;HPM_P1;HPM_P2
2023/11/30 00:01:59;;;;;;;39.50;22.23;;;0.90;99.90;;;;;;5009870;28;20202;-54
2023/11/30 00:04:27;;;;;;;42.93;23.57;;;0.90;99.90;;;;;;5009917;28;20224;-52
2023/11/30 00:06:55;;;;;;;44.20;23.70;;;0.90;99.90;;;;;;5008736;28;20581;-52
2023/11/30 00:09:25;;;;;;;47.20;24.97;;;0.90;99.90;;;;;;5011076;28;20218;-54
2023/11/30 00:11:53;;;;;;;46.10;24.63;;;0.90;99.90;;;;;;5009633;28;20222;-53
2023/11/30 00:14:21;;;;;;;42.90;24.70;;;0.90;99.90;;;;;;5013811;28;20312;-50
2023/11/30 00:16:49;;;;;;;46.20;26.13;;;0.90;99.90;;;;;;5011622;28;20194;-53
2023/11/30 00:19:18;;;;;;;47.60;26.07;;;0.90;99.90;;;;;;5011552;28;20230;-52
2023/11/30 00:21:46;;;;;;;47.70;24.47;;;0.90;99.90;;;;;;5010719;28;20755;-54
2023/11/30 00:24:14;;;;;;;55.30;27.07;;;0.80;99.90;;;;;;5014346;28;20225;-54
2023/11/30 00:26:44;;;;;;;53.57;26.63;;;0.80;99.90;;;;;;5014487;28;20357;-54
2023/11/30 00:29:12;;;;;;;54.83;25.53;;;0.80;99.90;;;;;;5010983;28;20228;-54
2023/11/30 00:31:40;;;;;;;43.17;24.27;;;0.70;99.90;;;;;;5012645;28;20645;-55
2023/11/30 00:34:09;;;;;;;46.47;25.20;;;0.70;99.90;;;;;;5011435;28;20224;-54
2023/11/30 00:36:37;;;;;;;46.73;24.93;;;0.70;99.90;;;;;;5010876;28;20221;-55
2023/11/30 00:39:05;;;;;;;52.20;25.03;;;0.70;99.90;;;;;;5011335;28;20240;-53
2023/11/30 00:41:33;;;;;;;49.40;25.17;;;0.70;99.90;;;;;;5010007;28;20271;-53
2023/11/30 00:44:03;;;;;;;47.03;24.10;;;0.60;99.90;;;;;;5012381;28;20539;-55
2023/11/30 00:46:32;;;;;;;46.73;24.30;;;0.60;99.90;;;;;;5012691;28;20198;-55
2023/11/30 00:49:00;;;;;;;41.70;22.83;;;0.50;99.90;;;;;;5013034;28;20222;-55
2023/11/30 00:51:29;;;;;;;57.00;25.13;;;0.50;99.90;;;;;;5009082;28;20218;-55
2023/11/30 00:53:58;;;;;;;43.17;24.03;;;0.50;99.90;;;;;;5013124;28;20615;-54
2023/11/30 00:56:26;;;;;;;43.27;22.83;;;0.50;99.90;;;;;;5014123;28;20225;-54
2023/11/30 00:58:55;;;;;;;44.70;24.73;;;0.50;99.90;;;;;;5012851;28;20524;-53
2023/11/30 01:01:24;;;;;;;41.70;22.50;;;0.40;99.90;;;;;;5013436;28;20198;-54
2023/11/30 01:03:52;;;;;;;43.83;23.10;;;0.40;99.90;;;;;;5009930;28;20245;-53
2023/11/30 01:06:21;;;;;;;41.87;23.80;;;0.30;99.90;;;;;;5011461;28;20217;-53
2023/11/30 01:08:49;;;;;;;46.90;23.13;;;0.20;99.90;;;;;;5010411;28;20225;-51
2023/11/30 01:11:17;;;;;;;43.30;24.50;;;0.20;99.90;;;;;;5010386;28;20230;-52
2023/11/30 01:13:45;;;;;;;48.03;24.17;;;0.20;99.90;;;;;;5011142;28;20666;-54
2023/11/30 01:16:14;;;;;;;49.00;26.17;;;0.20;99.90;;;;;;5012437;28;20217;-52
2023/11/30 01:18:43;;;;;;;47.70;24.90;;;0.20;99.90;;;;;;5011191;28;20221;-54
2023/11/30 01:21:12;;;;;;;49.30;25.10;;;0.10;99.90;;;;;;5011462;28;20774;-50
2023/11/30 01:23:40;;;;;;;60.77;27.10;;;0.10;99.90;;;;;;5008075;28;20249;-51
2023/11/30 01:26:09;;;;;;;50.27;25.67;;;0.10;99.90;;;;;;5009424;28;20221;-52
2023/11/30 01:28:37;;;;;;;45.53;23.33;;;0.10;99.90;;;;;;5011439;28;20290;-53
2023/11/30 01:31:06;;;;;;;48.87;25.07;;;0.10;99.90;;;;;;5011378;28;20743;-52
2023/11/30 01:33:36;;;;;;;53.47;25.20;;;0.00;99.90;;;;;;5010011;28;20580;-53
2023/11/30 01:36:07;;;;;;;50.60;25.07;;;0.00;99.90;;;;;;5011935;28;20234;-50
2023/11/30 01:38:36;;;;;;;47.97;25.17;;;-0.10;99.90;;;;;;5010645;28;20228;-52
2023/11/30 01:41:05;;;;;;;46.87;23.93;;;-0.20;99.90;;;;;;5010100;28;20213;-51
2023/11/30 01:43:33;;;;;;;54.17;24.57;;;-0.10;99.90;;;;;;5004436;28;20182;-54
2023/11/30 01:46:02;;;;;;;43.93;24.40;;;-0.10;99.90;;;;;;5012155;28;20654;-53
2023/11/30 01:48:33;;;;;;;47.67;24.93;;;-0.10;99.90;;;;;;5011891;28;20221;-53
2023/11/30 01:51:04;;;;;;;47.97;26.37;;;-0.10;99.90;;;;;;5012939;28;20218;-53
2023/11/30 01:53:35;;;;;;;48.87;25.37;;;-0.10;99.90;;;;;;5012172;28;20355;-54
2023/11/30 01:56:05;;;;;;;51.20;25.33;;;-0.10;99.90;;;;;;5010181;28;20242;-54
2023/11/30 01:58:34;;;;;;;46.87;26.40;;;0.00;99.90;;;;;;5012128;28;20261;-54
2023/11/30 02:01:02;;;;;;;50.37;27.50;;;0.10;99.90;;;;;;5008961;28;20320;-52
2023/11/30 02:03:31;;;;;;;49.27;27.10;;;0.20;99.90;;;;;;5009437;28;20296;-53
2023/11/30 02:06:00;;;;;;;47.63;25.00;;;0.30;99.90;;;;;;5008973;28;20250;-54
2023/11/30 02:08:28;;;;;;;53.00;26.90;;;0.30;99.90;;;;;;5008748;28;20225;-52
2023/11/30 02:10:58;;;;;;;58.77;27.13;;;0.40;99.90;;;;;;5008220;28;20288;-52
2023/11/30 02:13:26;;;;;;;57.13;26.50;;;0.40;99.90;;;;;;5013613;28;20202;-54
2023/11/30 02:15:55;;;;;;;55.37;27.07;;;0.50;99.90;;;;;;5009101;28;20298;-52
2023/11/30 02:18:23;;;;;;;53.00;26.33;;;0.60;99.90;;;;;;5006136;28;20214;-50
2023/11/30 02:20:51;;;;;;;51.07;25.50;;;0.60;99.90;;;;;;5010299;28;20217;-51
2023/11/30 02:23:21;;;;;;;56.10;27.50;;;0.60;99.90;;;;;;5010259;28;20230;-49
2023/11/30 02:25:49;;;;;;;51.87;27.53;;;0.70;99.90;;;;;;5007847;28;20206;-48
2023/11/30 02:28:18;;;;;;;48.57;26.83;;;0.70;99.90;;;;;;5008436;28;20193;-54
2023/11/30 02:30:49;;;;;;;55.03;28.07;;;0.80;99.90;;;;;;5009727;28;20218;-52
2023/11/30 02:33:17;;;;;;;52.47;27.07;;;0.80;99.90;;;;;;5009464;28;20218;-53
2023/11/30 02:35:46;;;;;;;49.40;25.30;;;0.90;99.90;;;;;;5012905;28;20734;-53
2023/11/30 02:38:14;;;;;;;50.17;25.67;;;0.90;99.90;;;;;;5007029;28;20681;-52
2023/11/30 02:40:44;;;;;;;52.73;26.17;;;0.90;99.90;;;;;;5012295;28;20252;-51
2023/11/30 02:43:12;;;;;;;52.67;26.80;;;0.90;99.90;;;;;;5010080;28;20297;-53
2023/11/30 02:45:41;;;;;;;43.13;24.13;;;1.00;99.90;;;;;;5010176;28;20232;-54
2023/11/30 02:48:09;;;;;;;49.47;26.07;;;1.00;99.90;;;;;;5010924;28;20229;-53
2023/11/30 02:50:38;;;;;;;49.83;26.70;;;1.00;99.90;;;;;;5010383;28;20250;-54
2023/11/30 02:53:07;;;;;;;52.77;26.17;;;1.10;99.90;;;;;;5010012;28;20228;-54
2023/11/30 02:55:36;;;;;;;47.00;25.37;;;1.10;99.90;;;;;;5012905;28;20212;-52
2023/11/30 02:58:05;;;;;;;50.50;25.40;;;1.10;99.90;;;;;;5009169;28;20679;-54
2023/11/30 03:00:36;;;;;;;49.20;24.27;;;1.20;99.90;;;;;;5011479;28;20229;-54
2023/11/30 03:03:04;;;;;;;49.60;26.13;;;1.10;99.90;;;;;;5008963;28;20692;-54
2023/11/30 03:05:33;;;;;;;44.70;24.43;;;1.20;99.90;;;;;;5008616;28;20226;-54
2023/11/30 03:08:01;;;;;;;50.77;26.20;;;1.20;99.90;;;;;;5006488;28;20186;-54
2023/11/30 03:10:29;;;;;;;44.60;25.00;;;1.20;99.90;;;;;;5009943;28;20198;-54
2023/11/30 03:12:57;;;;;;;46.67;26.23;;;1.20;99.90;;;;;;5007305;28;20214;-55
2023/11/30 03:15:27;;;;;;;46.77;24.93;;;1.30;99.90;;;;;;5005941;28;20218;-54
2023/11/30 03:17:55;;;;;;;53.90;26.93;;;1.30;99.90;;;;;;5009627;28;20226;-54
2023/11/30 03:20:23;;;;;;;47.83;24.87;;;1.40;99.90;;;;;;5010095;28;20308;-54
2023/11/30 03:22:51;;;;;;;47.00;26.67;;;1.40;99.90;;;;;;5009826;28;20182;-50
2023/11/30 03:25:20;;;;;;;55.10;28.13;;;1.40;99.90;;;;;;5007773;28;20206;-50
2023/11/30 03:27:48;;;;;;;48.80;26.23;;;1.30;99.90;;;;;;5009255;28;20317;-54
2023/11/30 03:30:17;;;;;;;46.07;24.07;;;1.30;99.90;;;;;;5007338;28;20615;-51
2023/11/30 03:32:47;;;;;;;46.57;24.37;;;1.30;99.90;;;;;;5010761;28;20236;-54
2023/11/30 03:35:15;;;;;;;46.40;24.53;;;1.30;99.90;;;;;;5006995;28;20250;-52
2023/11/30 03:37:43;;;;;;;56.27;28.23;;;1.30;99.90;;;;;;5012192;28;20210;-52
2023/11/30 03:40:12;;;;;;;47.83;25.47;;;1.30;99.90;;;;;;5012880;28;20225;-51
2023/11/30 03:42:41;;;;;;;48.67;25.30;;;1.30;99.90;;;;;;5006889;28;20221;-51
2023/11/30 03:45:10;;;;;;;56.43;27.70;;;1.30;99.90;;;;;;5015100;28;20220;-50
2023/11/30 03:47:38;;;;;;;50.97;27.63;;;1.30;99.90;;;;;;5010602;28;20647;-50
2023/11/30 03:50:09;;;;;;;66.53;31.97;;;1.40;99.90;;;;;;5012778;28;20275;-51
2023/11/30 03:52:37;;;;;;;60.67;30.87;;;1.40;99.90;;;;;;5014253;28;20198;-54
2023/11/30 03:55:06;;;;;;;61.67;31.27;;;1.50;99.90;;;;;;5007441;28;20232;-54
2023/11/30 03:57:34;;;;;;;54.73;29.10;;;1.50;99.90;;;;;;5011490;28;20214;-53
2023/11/30 04:00:03;;;;;;;55.93;30.00;;;1.50;99.90;;;;;;5011762;28;20734;-54
2023/11/30 04:02:32;;;;;;;52.93;29.20;;;1.50;99.90;;;;;;5008855;28;20661;-55
2023/11/30 04:05:03;;;;;;;64.10;30.87;;;1.60;99.90;;;;;;5012145;28;20291;-54
2023/11/30 04:07:33;;;;;;;62.30;29.13;;;1.60;99.90;;;;;;5013860;28;20194;-53
2023/11/30 04:10:01;;;;;;;63.77;29.47;;;1.70;99.90;;;;;;4995161;28;20225;-53
2023/11/30 04:12:29;;;;;;;66.30;30.37;;;1.70;99.90;;;;;;5011945;28;20237;-53
2023/11/30 04:15:00;;;;;;;64.07;29.97;;;1.70;99.90;;;;;;5010766;28;20232;-54
2023/11/30 04:17:29;;;;;;;63.43;30.80;;;1.80;99.90;;;;;;5010817;28;20777;-52
2023/11/30 04:19:57;;;;;;;66.63;31.73;;;1.80;99.90;;;;;;5011461;28;20660;-54
2023/11/30 04:22:25;;;;;;;66.10;31.33;;;1.80;99.90;;;;;;5015134;28;20640;-52
2023/11/30 04:24:55;;;;;;;67.37;30.17;;;1.80;99.90;;;;;;5012017;28;20222;-51
2023/11/30 04:27:23;;;;;;;66.27;32.20;;;1.90;99.90;;;;;;5012227;28;20690;-54
2023/11/30 04:29:51;;;;;;;66.80;29.73;;;1.90;99.90;;;;;;5012077;28;20937;-53
2023/11/30 04:32:20;;;;;;;68.63;31.03;;;1.90;99.90;;;;;;5010709;28;20229;-54
2023/11/30 04:34:48;;;;;;;74.60;32.40;;;1.90;99.90;;;;;;5012132;28;20198;-53
2023/11/30 04:37:16;;;;;;;61.67;31.10;;;1.90;99.90;;;;;;5009963;28;20663;-54
2023/11/30 04:39:44;;;;;;;61.67;28.30;;;1.90;99.90;;;;;;5009109;28;20214;-55
2023/11/30 04:42:14;;;;;;;64.47;30.37;;;1.90;99.90;;;;;;5012453;28;20222;-51
2023/11/30 04:44:42;;;;;;;65.30;29.60;;;1.90;99.90;;;;;;5010266;28;20241;-51
2023/11/30 04:47:10;;;;;;;67.63;30.97;;;1.90;99.90;;;;;;5011645;28;20687;-52
2023/11/30 04:49:39;;;;;;;63.60;28.63;;;1.90;99.90;;;;;;5008985;28;20194;-54
2023/11/30 04:52:07;;;;;;;63.57;30.47;;;1.90;99.90;;;;;;5006948;28;20316;-54
2023/11/30 04:54:35;;;;;;;59.50;29.20;;;1.90;99.90;;;;;;5011738;28;20236;-54
2023/11/30 04:57:06;;;;;;;55.03;27.87;;;1.90;99.90;;;;;;5008717;28;20242;-53
2023/11/30 04:59:35;;;;;;;53.27;26.73;;;1.90;99.90;;;;;;4993284;28;20300;-53
2023/11/30 05:02:04;;;;;;;59.90;28.80;;;1.90;99.90;;;;;;5007745;28;20280;-53
2023/11/30 05:04:32;;;;;;;60.33;28.13;;;1.90;99.90;;;;;;5012264;28;20230;-55
2023/11/30 05:07:00;;;;;;;61.00;27.80;;;1.90;99.90;;;;;;5009647;28;20264;-54
2023/11/30 05:09:29;;;;;;;74.73;31.50;;;1.90;99.90;;;;;;4988964;28;20229;-50
2023/11/30 05:11:57;;;;;;;73.30;33.53;;;1.90;99.90;;;;;;5009592;28;20715;-54
2023/11/30 05:14:25;;;;;;;70.63;31.00;;;2.00;99.90;;;;;;5012237;28;20218;-52
2023/11/30 05:16:55;;;;;;;68.50;31.60;;;2.00;99.90;;;;;;5009689;28;20205;-54
2023/11/30 05:19:24;;;;;;;66.57;29.80;;;2.00;99.90;;;;;;5013318;28;20676;-54
2023/11/30 05:21:52;;;;;;;61.30;28.53;;;2.00;99.90;;;;;;5010459;28;20241;-54
2023/11/30 05:24:20;;;;;;;59.13;28.80;;;2.00;99.90;;;;;;5010563;28;20225;-53
2023/11/30 05:26:48;;;;;;;59.37;28.93;;;2.10;99.90;;;;;;5010327;28;20230;-51
2023/11/30 05:29:16;;;;;;;55.83;27.47;;;2.10;99.90;;;;;;5012407;28;20230;-53
2023/11/30 05:31:45;;;;;;;59.90;26.73;;;2.10;99.90;;;;;;5010190;28;20186;-55
2023/11/30 05:34:15;;;;;;;56.37;26.40;;;2.10;99.90;;;;;;5011728;28;20222;-52
2023/11/30 05:36:43;;;;;;;61.13;26.73;;;2.20;99.90;;;;;;5011238;28;20221;-55
2023/11/30 05:39:12;;;;;;;59.80;27.20;;;2.20;99.90;;;;;;5010452;28;20256;-53
2023/11/30 05:41:42;;;;;;;69.37;28.97;;;2.20;99.90;;;;;;5010855;28;20213;-55
2023/11/30 05:44:11;;;;;;;62.63;27.53;;;2.20;99.90;;;;;;5006123;28;20283;-56
2023/11/30 05:46:39;;;;;;;75.83;29.07;;;2.30;99.90;;;;;;5010298;28;20198;-54
2023/11/30 05:49:08;;;;;;;65.60;27.70;;;2.30;99.90;;;;;;5011285;28;20222;-53
2023/11/30 05:51:39;;;;;;;66.53;26.97;;;2.30;99.90;;;;;;5007950;28;20226;-54
2023/11/30 05:54:08;;;;;;;81.97;29.97;;;2.30;99.90;;;;;;5008762;28;20592;-55
2023/11/30 05:56:37;;;;;;;79.03;28.27;;;2.40;99.90;;;;;;5011606;28;20238;-54
2023/11/30 05:59:05;;;;;;;93.27;27.27;;;2.40;99.90;;;;;;5008198;28;20222;-54
2023/11/30 06:01:33;;;;;;;94.20;28.47;;;2.50;99.90;;;;;;5011848;28;20194;-55
2023/11/30 06:04:02;;;;;;;84.80;28.70;;;2.40;99.90;;;;;;5007877;28;20943;-54
2023/11/30 06:06:30;;;;;;;97.80;29.97;;;2.50;99.90;;;;;;5011225;28;20266;-53
2023/11/30 06:09:00;;;;;;;282.43;32.33;;;2.50;99.90;;;;;;5009802;28;20272;-55
2023/11/30 06:11:29;;;;;;;222.13;30.23;;;2.40;99.90;;;;;;5008750;28;20217;-55
2023/11/30 06:13:57;;;;;;;164.20;28.83;;;2.40;99.90;;;;;;5006072;28;20202;-55
2023/11/30 06:16:28;;;;;;;169.17;29.67;;;2.40;99.90;;;;;;4990064;28;20522;-54
2023/11/30 06:18:56;;;;;;;151.10;28.73;;;2.40;99.90;;;;;;5009523;28;20239;-54
2023/11/30 06:21:24;;;;;;;136.33;27.90;;;2.40;99.90;;;;;;5007943;28;20213;-55
2023/11/30 06:23:52;;;;;;;163.17;28.63;;;2.40;99.90;;;;;;5006863;28;20267;-53
2023/11/30 06:26:22;;;;;;;142.87;25.77;;;2.40;99.90;;;;;;5008182;28;20229;-52
2023/11/30 06:28:51;;;;;;;199.57;28.23;;;2.40;99.90;;;;;;5006653;28;20545;-54
2023/11/30 06:31:19;;;;;;;107.03;25.10;;;2.40;99.90;;;;;;5010804;28;20198;-54
2023/11/30 06:33:48;;;;;;;146.83;27.47;;;2.40;99.90;;;;;;5010602;28;20301;-54
2023/11/30 06:36:17;;;;;;;139.73;27.40;;;2.40;99.90;;;;;;5010989;28;20731;-52
2023/11/30 06:38:45;;;;;;;164.73;28.70;;;2.50;99.90;;;;;;4988873;28;20672;-55
2023/11/30 06:41:13;;;;;;;217.93;30.17;;;2.40;99.90;;;;;;5011401;28;20771;-53
2023/11/30 06:43:43;;;;;;;175.00;26.87;;;2.40;99.90;;;;;;5009136;28;20205;-54
2023/11/30 06:46:19;;;;;;;340.10;32.40;;;2.40;99.90;;;;;;5007238;28;20256;-54
2023/11/30 06:48:47;;;;;;;190.10;27.73;;;2.40;99.90;;;;;;5002746;28;20224;-53
2023/11/30 06:51:16;;;;;;;227.23;26.27;;;2.30;99.90;;;;;;5008785;28;20880;-53
2023/11/30 06:53:45;;;;;;;106.10;23.23;;;2.30;99.90;;;;;;5006746;28;20337;-53
2023/11/30 06:56:13;;;;;;;197.73;23.00;;;2.30;99.90;;;;;;4971016;28;1146637;-55
2023/11/30 06:58:43;;;;;;;167.80;23.57;;;2.30;99.90;;;;;;5007161;28;20232;-55
2023/11/30 07:01:11;;;;;;;408.13;31.03;;;2.30;99.90;;;;;;5009465;28;20233;-55
2023/11/30 07:03:39;;;;;;;342.30;30.33;;;2.20;99.90;;;;;;5003301;28;20219;-54
2023/11/30 07:06:11;;;;;;;167.97;28.00;;;2.10;99.90;;;;;;5005592;28;20731;-55
2023/11/30 07:08:39;;;;;;;310.73;28.63;;;2.10;99.90;;;;;;5007114;28;20214;-54
2023/11/30 07:11:08;;;;;;;161.00;23.03;;;2.10;99.90;;;;;;5007232;28;20218;-54
2023/11/30 07:13:37;;;;;;;240.63;26.87;;;2.10;99.90;;;;;;5009035;28;20197;-54
2023/11/30 07:16:08;;;;;;;218.10;25.23;;;2.10;99.90;;;;;;5010761;28;20218;-51
2023/11/30 07:18:37;;;;;;;153.03;22.30;;;2.10;99.90;;;;;;5008805;28;20337;-53
2023/11/30 07:21:05;;;;;;;290.87;27.63;;;2.10;99.90;;;;;;5006963;28;20284;-53
2023/11/30 07:23:34;;;;;;;302.17;29.00;;;2.10;99.90;;;;;;5009243;28;20256;-54
2023/11/30 07:26:02;;;;;;;297.60;29.37;;;2.00;99.90;;;;;;5004003;28;20238;-53
2023/11/30 07:28:32;;;;;;;117.40;21.83;;;2.00;99.90;;;;;;4991086;28;20202;-52
2023/11/30 07:31:00;;;;;;;96.73;21.33;;;1.90;99.90;;;;;;5006041;28;20227;-55
2023/11/30 07:33:30;;;;;;;169.57;22.73;;;2.00;99.90;;;;;;5005530;28;20684;-52
2023/11/30 07:35:59;;;;;;;283.23;32.83;;;2.00;99.90;;;;;;5006228;28;20229;-54
2023/11/30 07:38:27;;;;;;;167.60;24.17;;;2.00;99.90;;;;;;5009281;28;20296;-52
2023/11/30 07:40:56;;;;;;;130.87;21.43;;;2.00;99.90;;;;;;5008002;28;20208;-53
2023/11/30 07:43:24;;;;;;;192.53;24.47;;;2.10;99.90;;;;;;5009922;28;20301;-52
2023/11/30 07:45:53;;;;;;;155.47;23.40;;;2.00;99.90;;;;;;5008811;28;20615;-52
2023/11/30 07:48:21;;;;;;;243.40;24.87;;;2.10;99.90;;;;;;5011761;28;20221;-52
2023/11/30 07:50:53;;;;;;;186.17;24.70;;;2.10;99.90;;;;;;5010365;28;20221;-52
2023/11/30 07:53:23;;;;;;;147.10;22.23;;;2.10;99.90;;;;;;5009609;28;20225;-53
2023/11/30 07:55:56;;;;;;;148.87;21.87;;;2.10;99.90;;;;;;5010509;28;20201;-54
2023/11/30 07:58:25;;;;;;;207.50;25.10;;;2.20;99.90;;;;;;4992562;28;20190;-53
2023/11/30 08:00:53;;;;;;;113.20;22.30;;;2.20;99.90;;;;;;5008188;28;20220;-52
2023/11/30 08:03:21;;;;;;;164.03;23.20;;;2.10;99.90;;;;;;5006885;28;20616;-55
2023/11/30 08:05:51;;;;;;;160.00;22.23;;;2.20;99.90;;;;;;5009158;28;20218;-54
2023/11/30 08:08:20;;;;;;;205.83;24.53;;;2.20;99.90;;;;;;4988477;28;20226;-53
2023/11/30 08:10:48;;;;;;;201.70;25.10;;;2.10;99.90;;;;;;5010426;28;20533;-55
2023/11/30 08:13:16;;;;;;;200.03;22.43;;;1.90;99.90;;;;;;5007061;28;20190;-53
2023/11/30 08:15:45;;;;;;;101.60;20.70;;;1.80;99.90;;;;;;5004986;28;20284;-54
2023/11/30 08:18:14;;;;;;;152.00;21.50;;;1.80;99.90;;;;;;5009724;28;20233;-53
2023/11/30 08:20:43;;;;;;;116.97;19.27;;;2.00;99.90;;;;;;5005821;28;20631;-52
2023/11/30 08:23:13;;;;;;;126.63;19.90;;;1.90;99.90;;;;;;5009742;28;20579;-53
2023/11/30 08:25:44;;;;;;;139.83;21.40;;;1.90;99.90;;;;;;5012468;28;20196;-54
2023/11/30 08:28:13;;;;;;;113.33;21.03;;;1.90;99.90;;;;;;5013003;28;20224;-55
2023/11/30 08:30:42;;;;;;;191.20;22.50;;;2.00;99.90;;;;;;5009654;28;20217;-54
2023/11/30 08:33:10;;;;;;;111.00;20.43;;;1.90;99.90;;;;;;5012695;28;20226;-54
2023/11/30 08:35:38;;;;;;;107.73;18.83;;;1.90;99.90;;;;;;5010608;28;20795;-54
2023/11/30 08:38:06;;;;;;;158.90;22.30;;;1.90;99.90;;;;;;5010876;28;20226;-55
2023/11/30 08:40:36;;;;;;;141.17;22.77;;;1.90;99.90;;;;;;5012266;28;20218;-55
2023/11/30 08:43:04;;;;;;;88.43;19.30;;;1.90;99.90;;;;;;5012578;28;20325;-54
2023/11/30 08:45:33;;;;;;;114.93;20.60;;;1.80;99.90;;;;;;5007735;28;20221;-55
2023/11/30 08:48:01;;;;;;;133.87;21.80;;;1.80;99.90;;;;;;5012879;28;20226;-50
2023/11/30 08:50:29;;;;;;;136.00;22.53;;;1.90;99.90;;;;;;5010630;28;20209;-51
2023/11/30 08:52:58;;;;;;;147.27;23.20;;;1.80;99.90;;;;;;5011083;28;20536;-54
2023/11/30 08:55:27;;;;;;;78.30;21.90;;;1.90;99.90;;;;;;5014055;28;20240;-50
2023/11/30 08:57:57;;;;;;;71.47;21.47;;;2.00;99.90;;;;;;5008972;28;20230;-54
2023/11/30 09:00:25;;;;;;;152.83;23.27;;;2.00;99.90;;;;;;5010550;28;20217;-53
2023/11/30 09:02:56;;;;;;;112.33;21.27;;;2.00;99.90;;;;;;5008881;28;20309;-50
2023/11/30 09:05:24;;;;;;;106.70;22.37;;;1.90;99.90;;;;;;5011201;28;20224;-52
2023/11/30 09:07:52;;;;;;;83.27;23.13;;;1.90;99.90;;;;;;5010124;28;20190;-49
2023/11/30 09:10:21;;;;;;;118.87;24.63;;;2.00;99.90;;;;;;5013860;28;20297;-53
2023/11/30 09:12:49;;;;;;;144.87;27.67;;;2.00;99.90;;;;;;5013047;28;20301;-54
2023/11/30 09:15:19;;;;;;;197.67;29.67;;;2.10;99.90;;;;;;5011436;28;20307;-52
2023/11/30 09:17:50;;;;;;;159.93;27.27;;;2.00;99.90;;;;;;5010808;28;20230;-50
2023/11/30 09:20:19;;;;;;;117.23;25.40;;;2.10;99.90;;;;;;5013039;28;20229;-52
2023/11/30 09:22:48;;;;;;;180.23;25.63;;;2.10;99.90;;;;;;5010243;28;20327;-53
2023/11/30 09:25:17;;;;;;;93.80;23.30;;;2.00;99.90;;;;;;5013633;28;20194;-53
2023/11/30 09:27:47;;;;;;;101.10;23.47;;;2.00;99.90;;;;;;5012739;28;20569;-53
2023/11/30 09:30:16;;;;;;;114.00;21.70;;;2.00;99.90;;;;;;5009638;28;20218;-53
2023/11/30 09:32:45;;;;;;;84.30;21.50;;;2.00;99.90;;;;;;5008628;28;20222;-53
2023/11/30 09:35:14;;;;;;;85.50;21.87;;;2.00;99.90;;;;;;5007595;28;20229;-51
2023/11/30 09:37:42;;;;;;;118.30;22.57;;;2.10;99.90;;;;;;5009355;28;20281;-54
2023/11/30 09:40:12;;;;;;;165.07;24.33;;;2.20;99.90;;;;;;4991718;28;20341;-51
2023/11/30 09:42:41;;;;;;;78.23;23.50;;;2.00;99.90;;;;;;5010899;28;20657;-52
2023/11/30 09:45:10;;;;;;;125.97;23.37;;;1.90;99.90;;;;;;5012158;28;20275;-51
2023/11/30 09:47:39;;;;;;;127.03;24.57;;;2.00;99.90;;;;;;5013213;28;20304;-52
2023/11/30 09:50:10;;;;;;;92.93;23.07;;;1.90;99.90;;;;;;5007241;28;20231;-54
2023/11/30 09:52:39;;;;;;;130.30;23.40;;;1.80;99.90;;;;;;5010696;28;20584;-54
2023/11/30 09:55:10;;;;;;;154.37;23.20;;;1.90;99.90;;;;;;5009185;28;20221;-54
2023/11/30 09:57:40;;;;;;;87.10;23.07;;;2.10;99.90;;;;;;5011836;28;20268;-55
2023/11/30 10:00:10;;;;;;;120.53;23.87;;;2.10;99.90;;;;;;5010441;28;20245;-51
2023/11/30 10:02:39;;;;;;;114.80;24.03;;;2.00;99.90;;;;;;5010584;28;20222;-55
2023/11/30 10:05:09;;;;;;;102.30;23.87;;;2.10;99.90;;;;;;5012426;28;20225;-56
2023/11/30 10:07:38;;;;;;;88.53;22.17;;;2.10;99.90;;;;;;5006777;28;20199;-53
2023/11/30 10:10:08;;;;;;;287.47;27.43;;;2.20;99.90;;;;;;5009525;28;20221;-52
2023/11/30 10:12:37;;;;;;;197.93;24.37;;;2.20;99.90;;;;;;5006003;28;20236;-54
2023/11/30 10:15:06;;;;;;;88.87;23.50;;;2.20;99.90;;;;;;5008263;28;20246;-54
2023/11/30 10:17:36;;;;;;;118.67;24.00;;;2.20;99.90;;;;;;5008564;28;20225;-51
2023/11/30 10:20:11;;;;;;;83.80;23.30;;;2.30;99.90;;;;;;5009115;28;20569;-53
2023/11/30 10:22:41;;;;;;;141.53;24.07;;;2.20;99.90;;;;;;5004628;28;20643;-51
2023/11/30 10:25:10;;;;;;;94.73;22.23;;;2.30;99.90;;;;;;5012264;28;20254;-55
2023/11/30 10:27:39;;;;;;;94.67;23.00;;;2.30;99.90;;;;;;5006249;28;20222;-53
2023/11/30 10:30:10;;;;;;;134.93;24.47;;;2.20;99.90;;;;;;5011015;28;20304;-55
2023/11/30 10:32:40;;;;;;;60.37;19.03;;;2.10;99.90;;;;;;5012568;28;20266;-52
2023/11/30 10:35:14;;;;;;;84.77;20.00;;;2.00;99.90;;;;;;5011885;28;20300;-53
2023/11/30 10:37:46;;;;;;;116.53;20.73;;;2.10;99.90;;;;;;5009093;28;20202;-52
2023/11/30 10:40:18;;;;;;;72.43;18.57;;;2.10;99.90;;;;;;5014585;28;20276;-54
2023/11/30 10:42:48;;;;;;;59.57;17.40;;;2.20;99.90;;;;;;5009467;28;20225;-54
2023/11/30 10:45:17;;;;;;;94.97;20.00;;;2.20;99.90;;;;;;5009768;28;20758;-54
2023/11/30 10:47:46;;;;;;;81.60;18.80;;;2.30;99.90;;;;;;5009324;28;20593;-52
2023/11/30 10:50:15;;;;;;;64.23;18.53;;;2.20;99.90;;;;;;5008863;28;20268;-54
2023/11/30 10:52:48;;;;;;;85.63;18.90;;;2.30;99.90;;;;;;5006224;28;20660;-55
2023/11/30 10:55:19;;;;;;;121.33;19.63;;;2.30;99.90;;;;;;5009589;28;20268;-52
2023/11/30 10:57:47;;;;;;;89.73;20.07;;;2.10;99.90;;;;;;5001994;28;20572;-55
2023/11/30 11:00:18;;;;;;;96.87;19.27;;;2.10;99.90;;;;;;5010403;28;20217;-55
2023/11/30 11:02:49;;;;;;;68.37;17.33;;;2.30;99.90;;;;;;5008534;28;20220;-53
2023/11/30 11:05:20;;;;;;;93.13;19.90;;;2.50;99.90;;;;;;4990535;28;20218;-55
2023/11/30 11:07:51;;;;;;;75.97;18.27;;;2.40;99.90;;;;;;5008378;28;20528;-52
2023/11/30 11:10:24;;;;;;;89.37;17.93;;;2.40;99.90;;;;;;5006360;28;20200;-53
2023/11/30 11:12:53;;;;;;;73.10;17.57;;;2.30;99.90;;;;;;5009504;28;20612;-52
2023/11/30 11:15:22;;;;;;;119.10;18.83;;;2.40;99.90;;;;;;5005479;28;20225;-54
2023/11/30 11:17:52;;;;;;;89.60;18.60;;;2.30;99.90;;;;;;5005939;28;20226;-51
2023/11/30 11:20:23;;;;;;;59.00;17.23;;;2.20;99.90;;;;;;5009163;28;20592;-54
2023/11/30 11:22:56;;;;;;;73.70;17.73;;;2.20;99.90;;;;;;4988654;28;20183;-50
2023/11/30 11:25:26;;;;;;;86.27;17.83;;;2.30;99.90;;;;;;5007428;28;20560;-53
2023/11/30 11:27:56;;;;;;;131.97;18.93;;;2.40;99.90;;;;;;5009804;28;20224;-53
2023/11/30 11:30:26;;;;;;;73.33;18.10;;;2.50;99.90;;;;;;5009846;28;20316;-53
2023/11/30 11:32:58;;;;;;;87.53;21.30;;;2.20;99.90;;;;;;5010102;28;20226;-54
2023/11/30 11:35:28;;;;;;;69.10;19.20;;;2.30;99.90;;;;;;5009322;28;20925;-52
2023/11/30 11:37:58;;;;;;;59.87;18.23;;;2.40;99.90;;;;;;5003455;28;20202;-55
2023/11/30 11:40:27;;;;;;;73.70;19.40;;;2.50;99.90;;;;;;5007441;28;20644;-52
2023/11/30 11:42:56;;;;;;;109.60;19.13;;;2.60;99.90;;;;;;5007262;28;20222;-52
2023/11/30 11:45:24;;;;;;;70.40;19.20;;;2.50;99.90;;;;;;5007533;28;20229;-53
2023/11/30 11:47:53;;;;;;;61.80;18.53;;;2.40;99.90;;;;;;5007984;28;20226;-51
2023/11/30 11:50:22;;;;;;;60.60;17.57;;;2.30;99.90;;;;;;5009314;28;20303;-52
2023/11/30 11:52:50;;;;;;;62.93;18.47;;;2.30;99.90;;;;;;5008606;28;20212;-53
2023/11/30 11:55:24;;;;;;;81.90;20.43;;;2.40;99.90;;;;;;5010830;28;20194;-51
2023/11/30 11:57:53;;;;;;;74.57;19.97;;;2.40;99.90;;;;;;5010234;28;20228;-50
2023/11/30 12:00:24;;;;;;;97.97;20.80;;;2.50;99.90;;;;;;5012210;28;20218;-51
2023/11/30 12:03:03;;;;;;;57.43;19.80;;;2.60;99.90;;;;;;5012215;28;20260;-51
2023/11/30 12:05:32;;;;;;;73.60;20.27;;;2.70;99.90;;;;;;5010359;28;20221;-52
2023/11/30 12:08:02;;;;;;;62.23;19.93;;;2.70;99.90;;;;;;5011738;28;20202;-53
2023/11/30 12:10:33;;;;;;;86.47;21.63;;;2.60;99.90;;;;;;5010400;28;20296;-52
2023/11/30 12:13:02;;;;;;;61.17;20.77;;;2.70;99.90;;;;;;5010870;28;20310;-52
2023/11/30 12:15:32;;;;;;;82.27;20.77;;;2.60;99.90;;;;;;5009367;28;20583;-53
2023/11/30 12:18:01;;;;;;;62.00;19.63;;;2.60;99.90;;;;;;5010391;28;20219;-54
2023/11/30 12:20:30;;;;;;;67.33;22.40;;;2.60;99.90;;;;;;5008075;28;20710;-53
2023/11/30 12:22:59;;;;;;;57.27;19.23;;;2.70;99.90;;;;;;5014139;28;20218;-54
2023/11/30 12:25:28;;;;;;;62.93;20.07;;;2.60;99.90;;;;;;5011857;28;20541;-49
2023/11/30 12:27:58;;;;;;;64.43;21.10;;;2.70;99.90;;;;;;5011736;28;20349;-54
2023/11/30 12:30:26;;;;;;;69.10;21.10;;;2.80;99.90;;;;;;5009462;28;20294;-52
2023/11/30 12:32:54;;;;;;;64.63;21.50;;;2.80;99.90;;;;;;5014626;28;20300;-50
2023/11/30 12:35:22;;;;;;;70.73;22.70;;;2.80;99.90;;;;;;5013104;28;20592;-50
2023/11/30 12:37:51;;;;;;;60.27;21.57;;;2.80;99.90;;;;;;5014181;28;20248;-53
2023/11/30 12:40:19;;;;;;;79.77;23.10;;;2.80;99.90;;;;;;5013734;28;20201;-52
2023/11/30 12:42:47;;;;;;;55.67;20.17;;;2.70;99.90;;;;;;5012682;28;20222;-52